Time;durP1;ratioP1;P1;durP2;ratioP2;P2;SDS_P1;SDS_P2;PMS_P1;PMS_P2;Temp;Humidity;BMP_temperature;BMP_pressure;BME280_temperature;BME280_humidity;BME280_pressure;Samples;Min_cycle;Max_cycle;Signal;HPM_P1;HPM_P2
2024/02/29 00:01:21;;;;;;;14.65;9.40;;;;;;;;;;5034003;28;20049;-63
2024/02/29 00:03:48;;;;;;;14.63;9.75;;;;;;;;;;5034587;28;20053;-63
2024/02/29 00:06:14;;;;;;;12.50;8.70;;;;;;;;;;5034325;28;20061;-62
2024/02/29 00:08:41;;;;;;;13.35;9.30;;;;;;;;;;5034385;28;20064;-63
2024/02/29 00:11:09;;;;;;;13.75;9.32;;;;;;;;;;5034043;28;20053;-62
2024/02/29 00:13:36;;;;;;;12.88;9.43;;;;;;;;;;5034338;28;20056;-63
2024/02/29 00:16:03;;;;;;;13.55;9.93;;;;;;;;;;5034194;28;20061;-63
2024/02/29 00:18:30;;;;;;;13.00;8.95;;;;;;;;;;5034098;28;20415;-63
2024/02/29 00:20:57;;;;;;;13.73;9.68;;;;;;;;;;5034230;28;20050;-63
2024/02/29 00:23:24;;;;;;;13.07;9.15;;;;;;;;;;5034077;28;20064;-62
2024/02/29 00:25:50;;;;;;;15.80;10.05;;;;;;;;;;5033837;28;20061;-63
2024/02/29 00:28:18;;;;;;;14.48;10.00;;;;;;;;;;5033820;28;20053;-62
2024/02/29 00:30:45;;;;;;;15.25;10.30;;;;;;;;;;5032417;28;20053;-63
2024/02/29 00:33:13;;;;;;;15.77;10.18;;;;;;;;;;5033396;28;20054;-62
2024/02/29 00:35:40;;;;;;;16.60;10.90;;;;;;;;;;5033585;28;20053;-63
2024/02/29 00:38:06;;;;;;;15.63;10.00;;;;;;;;;;5033428;28;20053;-62
2024/02/29 00:40:33;;;;;;;15.23;10.15;;;;;;;;;;5033728;28;20049;-63
2024/02/29 00:43:00;;;;;;;16.10;10.50;;;;;;;;;;5033140;28;20057;-62
2024/02/29 00:45:28;;;;;;;16.42;9.93;;;;;;;;;;5033100;28;20444;-62
2024/02/29 00:47:55;;;;;;;15.48;9.90;;;;;;;;;;5032922;28;20057;-62
2024/02/29 00:50:22;;;;;;;16.42;10.52;;;;;;;;;;5033318;28;20049;-62
2024/02/29 00:52:49;;;;;;;15.88;10.13;;;;;;;;;;5033515;28;20061;-63
2024/02/29 00:55:15;;;;;;;17.50;10.75;;;;;;;;;;5032933;28;20076;-63
2024/02/29 00:57:44;;;;;;;15.52;10.52;;;;;;;;;;5033282;28;20060;-63
2024/02/29 01:00:11;;;;;;;14.32;10.15;;;;;;;;;;5033319;28;20057;-62
2024/02/29 01:02:40;;;;;;;15.68;10.23;;;;;;;;;;5032814;28;20064;-63
2024/02/29 01:05:07;;;;;;;16.55;10.57;;;;;;;;;;5033571;28;20053;-62
2024/02/29 01:07:33;;;;;;;16.00;11.02;;;;;;;;;;5032817;28;20496;-62
2024/02/29 01:10:00;;;;;;;14.13;9.77;;;;;;;;;;5033093;28;20053;-62
2024/02/29 01:12:27;;;;;;;14.93;10.23;;;;;;;;;;5033140;28;20046;-63
2024/02/29 01:14:54;;;;;;;17.77;11.52;;;;;;;;;;5033142;28;20057;-62
2024/02/29 01:17:22;;;;;;;14.35;9.82;;;;;;;;;;5033280;28;20061;-62
2024/02/29 01:19:51;;;;;;;15.77;10.43;;;;;;;;;;5033336;28;20061;-62
2024/02/29 01:22:17;;;;;;;15.77;10.60;;;;;;;;;;5032839;28;20057;-62
2024/02/29 01:24:44;;;;;;;15.38;10.13;;;;;;;;;;5032952;28;20053;-62
2024/02/29 01:27:11;;;;;;;15.88;10.95;;;;;;;;;;5032750;28;20061;-62
2024/02/29 01:29:39;;;;;;;17.67;11.00;;;;;;;;;;5032955;28;20064;-61
2024/02/29 01:32:06;;;;;;;17.38;11.07;;;;;;;;;;5032756;28;20049;-62
2024/02/29 01:34:34;;;;;;;15.85;10.38;;;;;;;;;;5033048;28;20049;-62
2024/02/29 01:37:03;;;;;;;14.27;10.32;;;;;;;;;;5032546;28;20060;-62
2024/02/29 01:39:30;;;;;;;15.18;9.93;;;;;;;;;;5032517;28;20057;-62
2024/02/29 01:41:56;;;;;;;14.23;9.95;;;;;;;;;;5031944;28;20053;-62
2024/02/29 01:44:23;;;;;;;14.45;10.07;;;;;;;;;;5032426;28;20057;-62
2024/02/29 01:46:50;;;;;;;15.70;10.75;;;;;;;;;;5032200;28;20069;-62
2024/02/29 01:49:17;;;;;;;17.90;11.20;;;;;;;;;;5032606;28;20053;-62
2024/02/29 01:51:45;;;;;;;17.33;11.05;;;;;;;;;;5032465;28;20062;-62
2024/02/29 01:54:13;;;;;;;16.02;10.60;;;;;;;;;;5032348;28;20066;-62
2024/02/29 01:56:41;;;;;;;15.25;9.93;;;;;;;;;;5032589;28;20057;-62
2024/02/29 01:59:08;;;;;;;16.25;10.35;;;;;;;;;;5032720;28;20057;-62
2024/02/29 02:01:35;;;;;;;16.70;10.90;;;;;;;;;;5032398;28;20052;-62
2024/02/29 02:04:02;;;;;;;14.82;9.73;;;;;;;;;;5032529;28;20049;-62
2024/02/29 02:06:28;;;;;;;16.23;9.98;;;;;;;;;;5032049;28;20416;-62
2024/02/29 02:08:56;;;;;;;15.85;10.05;;;;;;;;;;5032419;28;20499;-62
2024/02/29 02:11:24;;;;;;;16.92;9.68;;;;;;;;;;5032001;28;20050;-62
2024/02/29 02:13:51;;;;;;;18.48;11.95;;;;;;;;;;5032375;28;20053;-62
2024/02/29 02:16:18;;;;;;;15.57;10.07;;;;;;;;;;5032159;28;20512;-62
2024/02/29 02:18:45;;;;;;;17.85;11.27;;;;;;;;;;5032300;28;20396;-62
2024/02/29 02:21:13;;;;;;;17.38;11.07;;;;;;;;;;5031847;28;20104;-62
2024/02/29 02:23:40;;;;;;;17.33;11.30;;;;;;;;;;5032017;28;20220;-62
2024/02/29 02:26:06;;;;;;;16.67;11.50;;;;;;;;;;5032292;28;20053;-62
2024/02/29 02:28:33;;;;;;;16.92;11.18;;;;;;;;;;5032256;28;20056;-62
2024/02/29 02:31:00;;;;;;;21.23;11.60;;;;;;;;;;5032227;28;20072;-62
2024/02/29 02:33:27;;;;;;;15.75;10.55;;;;;;;;;;5032221;28;20058;-62
2024/02/29 02:35:53;;;;;;;18.20;11.50;;;;;;;;;;5031825;28;20053;-62
2024/02/29 02:38:21;;;;;;;17.55;11.90;;;;;;;;;;5031791;28;20053;-62
2024/02/29 02:40:48;;;;;;;17.40;11.38;;;;;;;;;;5031864;28;20065;-62
2024/02/29 02:43:15;;;;;;;17.85;11.40;;;;;;;;;;5031522;28;20046;-62
2024/02/29 02:45:42;;;;;;;18.35;11.65;;;;;;;;;;5032135;28;20060;-61
2024/02/29 02:48:09;;;;;;;18.42;11.48;;;;;;;;;;5031619;28;20060;-62
2024/02/29 02:50:35;;;;;;;18.20;11.77;;;;;;;;;;5032040;28;20054;-62
2024/02/29 02:53:04;;;;;;;20.02;12.13;;;;;;;;;;5032017;28;20056;-61
2024/02/29 02:55:32;;;;;;;15.88;10.80;;;;;;;;;;5035633;28;20061;-61
2024/02/29 02:57:59;;;;;;;18.33;12.05;;;;;;;;;;5035438;28;20080;-61
2024/02/29 03:00:25;;;;;;;16.48;10.93;;;;;;;;;;5035322;28;20060;-62
2024/02/29 03:02:52;;;;;;;18.85;11.95;;;;;;;;;;5035425;28;20053;-61
2024/02/29 03:05:20;;;;;;;15.30;10.15;;;;;;;;;;5035413;28;20492;-62
2024/02/29 03:07:47;;;;;;;19.60;11.45;;;;;;;;;;5035383;28;20394;-62
2024/02/29 03:10:13;;;;;;;16.27;10.20;;;;;;;;;;5035338;28;20064;-62
2024/02/29 03:12:42;;;;;;;17.75;10.35;;;;;;;;;;5034970;28;20061;-61
2024/02/29 03:15:09;;;;;;;13.60;9.70;;;;;;;;;;5035076;28;20053;-61
2024/02/29 03:17:36;;;;;;;16.10;10.38;;;;;;;;;;5035021;28;20080;-61
2024/02/29 03:20:05;;;;;;;15.98;10.85;;;;;;;;;;5035216;28;20053;-61
2024/02/29 03:22:32;;;;;;;14.95;10.52;;;;;;;;;;5034792;28;20050;-61
2024/02/29 03:24:59;;;;;;;18.13;12.02;;;;;;;;;;5034881;28;20137;-61
2024/02/29 03:27:26;;;;;;;16.77;11.10;;;;;;;;;;5034663;28;20057;-61
2024/02/29 03:29:54;;;;;;;15.55;10.98;;;;;;;;;;5034952;28;20060;-61
2024/02/29 03:32:21;;;;;;;16.30;10.88;;;;;;;;;;5034873;28;20049;-61
2024/02/29 03:34:48;;;;;;;18.05;10.88;;;;;;;;;;5035004;28;20060;-61
2024/02/29 03:37:14;;;;;;;17.40;10.63;;;;;;;;;;5034608;28;20056;-61
2024/02/29 03:39:41;;;;;;;16.77;10.27;;;;;;;;;;5034206;28;20428;-61
2024/02/29 03:42:08;;;;;;;16.33;11.23;;;;;;;;;;5034638;28;20472;-61
2024/02/29 03:44:35;;;;;;;16.58;10.68;;;;;;;;;;5034836;28;20507;-61
2024/02/29 03:47:03;;;;;;;17.27;10.27;;;;;;;;;;5033910;28;20498;-62
2024/02/29 03:49:30;;;;;;;18.35;10.98;;;;;;;;;;5034822;28;20053;-61
2024/02/29 03:51:57;;;;;;;16.58;9.80;;;;;;;;;;5034262;28;20050;-61
2024/02/29 03:54:23;;;;;;;19.33;11.27;;;;;;;;;;5033894;28;20061;-61
2024/02/29 03:56:51;;;;;;;16.48;10.40;;;;;;;;;;5033360;28;20057;-61
2024/02/29 03:59:18;;;;;;;15.95;9.50;;;;;;;;;;5034068;28;20080;-61
2024/02/29 04:01:47;;;;;;;15.88;9.02;;;;;;;;;;5034022;28;20053;-61
2024/02/29 04:04:17;;;;;;;12.85;8.63;;;;;;;;;;5033962;28;20053;-61
2024/02/29 04:06:43;;;;;;;14.95;8.85;;;;;;;;;;5034073;28;20056;-61
2024/02/29 04:09:11;;;;;;;14.88;8.70;;;;;;;;;;5033286;28;20056;-61
2024/02/29 04:11:38;;;;;;;13.43;8.05;;;;;;;;;;5033749;28;20064;-61
2024/02/29 04:14:05;;;;;;;14.27;8.80;;;;;;;;;;5034223;28;20053;-61
2024/02/29 04:16:35;;;;;;;12.55;8.40;;;;;;;;;;5034214;28;20053;-61
2024/02/29 04:19:02;;;;;;;14.00;8.35;;;;;;;;;;5033847;28;20057;-61
2024/02/29 04:21:30;;;;;;;13.80;8.27;;;;;;;;;;5034203;28;20057;-62
2024/02/29 04:23:57;;;;;;;11.57;8.27;;;;;;;;;;5033973;28;20045;-61
2024/02/29 04:26:24;;;;;;;15.35;9.40;;;;;;;;;;5034086;28;20052;-61
2024/02/29 04:28:51;;;;;;;13.63;9.13;;;;;;;;;;5034058;28;20064;-62
2024/02/29 04:31:18;;;;;;;13.70;9.07;;;;;;;;;;5033641;28;20136;-61
2024/02/29 04:33:45;;;;;;;14.98;9.75;;;;;;;;;;5031379;28;20052;-61
2024/02/29 04:36:12;;;;;;;16.52;9.70;;;;;;;;;;5033234;28;20057;-61
2024/02/29 04:38:40;;;;;;;15.68;9.70;;;;;;;;;;5033372;28;20050;-62
2024/02/29 04:41:07;;;;;;;14.43;9.40;;;;;;;;;;5033876;28;20064;-62
2024/02/29 04:43:35;;;;;;;14.75;9.30;;;;;;;;;;5033476;28;20053;-61
2024/02/29 04:46:03;;;;;;;15.85;9.85;;;;;;;;;;5033333;28;20444;-62
2024/02/29 04:48:30;;;;;;;17.27;10.77;;;;;;;;;;5033608;28;20115;-62
2024/02/29 04:50:56;;;;;;;15.73;9.90;;;;;;;;;;5033150;28;20049;-61
2024/02/29 04:53:23;;;;;;;15.40;9.20;;;;;;;;;;5033342;28;20072;-61
2024/02/29 04:55:51;;;;;;;15.70;9.52;;;;;;;;;;5033331;28;20412;-61
2024/02/29 04:58:18;;;;;;;16.20;10.27;;;;;;;;;;5033004;28;20057;-61
2024/02/29 05:00:45;;;;;;;14.25;9.13;;;;;;;;;;5033218;28;20049;-61
2024/02/29 05:03:12;;;;;;;14.27;9.05;;;;;;;;;;5033090;28;20386;-61
2024/02/29 05:05:39;;;;;;;11.48;7.95;;;;;;;;;;5033166;28;20053;-61
2024/02/29 05:08:06;;;;;;;12.30;8.25;;;;;;;;;;5033269;28;20054;-61
2024/02/29 05:10:33;;;;;;;13.43;8.02;;;;;;;;;;5032757;28;20511;-60
2024/02/29 05:13:01;;;;;;;13.05;8.20;;;;;;;;;;5033062;28;20049;-60
2024/02/29 05:15:28;;;;;;;10.95;7.22;;;;;;;;;;5032956;28;20049;-61
2024/02/29 05:17:54;;;;;;;12.35;7.78;;;;;;;;;;5032581;28;20064;-61
2024/02/29 05:20:21;;;;;;;10.70;7.35;;;;;;;;;;5032671;28;20057;-61
2024/02/29 05:22:53;;;;;;;10.00;7.15;;;;;;;;;;5032757;28;20377;-61
2024/02/29 05:25:20;;;;;;;11.75;7.55;;;;;;;;;;5033016;28;20057;-61
2024/02/29 05:27:47;;;;;;;12.48;6.95;;;;;;;;;;5032931;28;20056;-60
2024/02/29 05:30:15;;;;;;;11.25;7.90;;;;;;;;;;5033025;28;20053;-60
2024/02/29 05:32:42;;;;;;;11.50;7.55;;;;;;;;;;5033145;28;20049;-61
2024/02/29 05:35:09;;;;;;;12.50;7.70;;;;;;;;;;5033021;28;20485;-61
2024/02/29 05:37:36;;;;;;;11.57;7.68;;;;;;;;;;5032472;28;20500;-61
2024/02/29 05:40:05;;;;;;;10.68;6.75;;;;;;;;;;5032374;28;20053;-61
2024/02/29 05:42:32;;;;;;;9.88;6.45;;;;;;;;;;5032962;28;20057;-61
2024/02/29 05:44:59;;;;;;;11.35;6.90;;;;;;;;;;5032715;28;20049;-61
2024/02/29 05:47:28;;;;;;;10.18;6.40;;;;;;;;;;5046762;28;20464;-60
2024/02/29 05:49:55;;;;;;;8.85;6.45;;;;;;;;;;5053030;28;20060;-61
2024/02/29 05:52:22;;;;;;;9.65;6.65;;;;;;;;;;5052346;28;20049;-64
2024/02/29 05:54:49;;;;;;;10.15;6.00;;;;;;;;;;5052102;28;20053;-61
2024/02/29 05:57:16;;;;;;;9.52;6.03;;;;;;;;;;5051944;28;20063;-60
2024/02/29 05:59:43;;;;;;;7.97;5.65;;;;;;;;;;5052269;28;20064;-60
2024/02/29 06:02:10;;;;;;;9.95;6.30;;;;;;;;;;5051876;28;20435;-61
2024/02/29 06:04:38;;;;;;;10.60;5.88;;;;;;;;;;5052302;28;20052;-61
2024/02/29 06:07:06;;;;;;;8.77;5.70;;;;;;;;;;5051709;28;20056;-60
2024/02/29 06:09:35;;;;;;;8.70;5.53;;;;;;;;;;5052302;28;20064;-61
2024/02/29 06:12:02;;;;;;;9.35;5.30;;;;;;;;;;5052154;28;20510;-61
2024/02/29 06:14:29;;;;;;;9.70;5.18;;;;;;;;;;5052532;28;20403;-61
2024/02/29 06:16:56;;;;;;;7.15;5.30;;;;;;;;;;5052331;28;20057;-62
2024/02/29 06:19:23;;;;;;;8.20;5.35;;;;;;;;;;5052461;28;20057;-61
2024/02/29 06:21:51;;;;;;;7.88;5.55;;;;;;;;;;5052112;28;20048;-61
2024/02/29 06:24:19;;;;;;;7.15;5.03;;;;;;;;;;5052405;28;20045;-61
2024/02/29 06:26:46;;;;;;;7.53;5.03;;;;;;;;;;5052186;28;20097;-61
2024/02/29 06:29:13;;;;;;;7.47;4.82;;;;;;;;;;5054791;28;20053;-61
2024/02/29 06:31:42;;;;;;;8.00;5.40;;;;;;;;;;5056361;28;20053;-61
2024/02/29 06:34:09;;;;;;;7.20;5.18;;;;;;;;;;5056150;28;20076;-61
2024/02/29 06:36:36;;;;;;;7.20;4.70;;;;;;;;;;5055814;28;20048;-61
2024/02/29 06:39:07;;;;;;;8.38;5.47;;;;;;;;;;5056097;28;20064;-61
2024/02/29 06:41:34;;;;;;;6.82;4.50;;;;;;;;;;5055883;28;20068;-61
2024/02/29 06:44:02;;;;;;;9.35;5.03;;;;;;;;;;5055881;28;20060;-61
2024/02/29 06:46:29;;;;;;;6.30;4.45;;;;;;;;;;5055230;28;20076;-60
2024/02/29 06:48:56;;;;;;;6.30;4.43;;;;;;;;;;5055674;28;20056;-61
2024/02/29 06:51:23;;;;;;;8.00;4.90;;;;;;;;;;5055420;28;20060;-60
2024/02/29 06:53:50;;;;;;;6.65;4.63;;;;;;;;;;5055760;28;20071;-61
2024/02/29 06:56:18;;;;;;;6.63;4.40;;;;;;;;;;5055049;28;20411;-61
2024/02/29 06:58:45;;;;;;;6.32;4.55;;;;;;;;;;5054939;28;20056;-61
2024/02/29 07:01:13;;;;;;;6.47;4.55;;;;;;;;;;5055159;28;20061;-61
2024/02/29 07:03:39;;;;;;;5.95;4.68;;;;;;;;;;5055294;28;20060;-61
2024/02/29 07:06:06;;;;;;;8.50;4.45;;;;;;;;;;5055411;28;20056;-61
2024/02/29 07:08:35;;;;;;;6.60;4.25;;;;;;;;;;5055320;28;20053;-61
2024/02/29 07:11:02;;;;;;;6.72;4.80;;;;;;;;;;5055118;28;20055;-61
2024/02/29 07:13:30;;;;;;;6.85;4.70;;;;;;;;;;5055430;28;20061;-61
2024/02/29 07:15:57;;;;;;;6.43;4.07;;;;;;;;;;5055470;28;20063;-61
2024/02/29 07:18:24;;;;;;;7.72;4.57;;;;;;;;;;5055317;28;20064;-61
2024/02/29 07:20:51;;;;;;;6.35;4.10;;;;;;;;;;5055107;28;20056;-61
2024/02/29 07:23:18;;;;;;;6.35;4.25;;;;;;;;;;5055136;28;20086;-61
2024/02/29 07:25:45;;;;;;;5.93;4.05;;;;;;;;;;5054797;28;20048;-61
2024/02/29 07:28:12;;;;;;;5.63;4.00;;;;;;;;;;5054785;28;20068;-61
2024/02/29 07:30:40;;;;;;;5.82;4.10;;;;;;;;;;5055314;28;20048;-61
2024/02/29 07:33:07;;;;;;;6.07;3.75;;;;;;;;;;5054673;28;20053;-60
2024/02/29 07:35:34;;;;;;;5.50;3.85;;;;;;;;;;5054811;28;20059;-60
2024/02/29 07:38:01;;;;;;;5.65;3.70;;;;;;;;;;5054677;28;20064;-60
2024/02/29 07:40:28;;;;;;;5.13;3.40;;;;;;;;;;5054693;28;20049;-59
2024/02/29 07:42:55;;;;;;;7.35;3.83;;;;;;;;;;5054872;28;20052;-61
2024/02/29 07:45:21;;;;;;;4.80;3.60;;;;;;;;;;5054706;28;20049;-61
2024/02/29 07:47:50;;;;;;;5.00;3.60;;;;;;;;;;5054698;28;20053;-60
2024/02/29 07:50:17;;;;;;;4.32;2.92;;;;;;;;;;5054258;28;20416;-61
2024/02/29 07:52:44;;;;;;;5.10;3.13;;;;;;;;;;5054420;28;20053;-61
2024/02/29 07:55:14;;;;;;;3.80;2.90;;;;;;;;;;5054977;28;20123;-61
2024/02/29 07:57:41;;;;;;;4.43;3.05;;;;;;;;;;5054418;28;20068;-60
2024/02/29 08:00:10;;;;;;;3.75;2.70;;;;;;;;;;5054685;28;20064;-60
2024/02/29 08:02:36;;;;;;;4.78;3.05;;;;;;;;;;5054499;28;20487;-60
2024/02/29 08:05:05;;;;;;;3.45;2.58;;;;;;;;;;5054762;28;20053;-60
2024/02/29 08:07:32;;;;;;;3.72;2.67;;;;;;;;;;5054680;28;20060;-61
2024/02/29 08:09:58;;;;;;;4.10;2.83;;;;;;;;;;5053964;28;20419;-61
2024/02/29 08:12:25;;;;;;;4.10;2.85;;;;;;;;;;5054260;28;20061;-61
2024/02/29 08:14:52;;;;;;;3.38;2.42;;;;;;;;;;5054369;28;20056;-61
2024/02/29 08:17:19;;;;;;;3.92;2.70;;;;;;;;;;5054519;28;20053;-60
2024/02/29 08:19:46;;;;;;;4.05;2.28;;;;;;;;;;5054310;28;20057;-60
2024/02/29 08:22:14;;;;;;;3.40;2.60;;;;;;;;;;5053918;28;20415;-61
2024/02/29 08:24:41;;;;;;;3.00;2.15;;;;;;;;;;5054169;28;20464;-62
2024/02/29 08:27:08;;;;;;;3.17;2.30;;;;;;;;;;5054403;28;20049;-61
2024/02/29 08:29:34;;;;;;;4.82;2.67;;;;;;;;;;5054210;28;20052;-62
2024/02/29 08:32:02;;;;;;;3.67;2.50;;;;;;;;;;5054052;28;20064;-60
2024/02/29 08:34:30;;;;;;;3.60;2.30;;;;;;;;;;5053967;28;20044;-60
2024/02/29 08:36:57;;;;;;;3.23;2.60;;;;;;;;;;5053773;28;20072;-60
2024/02/29 08:39:25;;;;;;;3.25;2.33;;;;;;;;;;5053705;28;20053;-60
2024/02/29 08:41:52;;;;;;;3.58;2.50;;;;;;;;;;5053739;28;20049;-62
2024/02/29 08:44:19;;;;;;;3.38;2.42;;;;;;;;;;5053690;28;20067;-60
2024/02/29 08:46:46;;;;;;;4.00;2.30;;;;;;;;;;5053406;28;20420;-62
2024/02/29 08:49:13;;;;;;;3.35;2.40;;;;;;;;;;5053707;28;20053;-60
2024/02/29 08:51:40;;;;;;;3.70;2.30;;;;;;;;;;5052350;28;20053;-60
2024/02/29 08:54:07;;;;;;;4.00;2.42;;;;;;;;;;5053579;28;20053;-59
2024/02/29 08:56:35;;;;;;;4.15;2.63;;;;;;;;;;5053159;28;20049;-60
2024/02/29 08:59:01;;;;;;;3.75;2.45;;;;;;;;;;5053580;28;20053;-61
2024/02/29 09:01:28;;;;;;;3.85;2.63;;;;;;;;;;5053573;28;20511;-60
2024/02/29 09:03:55;;;;;;;3.47;2.28;;;;;;;;;;5053270;28;20056;-60
2024/02/29 09:06:22;;;;;;;3.70;2.45;;;;;;;;;;5053249;28;20060;-61
2024/02/29 09:08:49;;;;;;;3.75;2.30;;;;;;;;;;5053021;28;20057;-60
2024/02/29 09:11:15;;;;;;;6.43;2.63;;;;;;;;;;5053193;28;20060;-60
2024/02/29 09:13:44;;;;;;;4.50;2.67;;;;;;;;;;5052744;28;20053;-61
2024/02/29 09:16:10;;;;;;;3.47;2.22;;;;;;;;;;5053214;28;20048;-60
2024/02/29 09:18:38;;;;;;;2.83;2.13;;;;;;;;;;5053241;28;20075;-62
2024/02/29 09:21:05;;;;;;;3.80;2.28;;;;;;;;;;5053099;28;20049;-62
2024/02/29 09:23:32;;;;;;;2.80;2.20;;;;;;;;;;5053108;28;20059;-61
2024/02/29 09:25:58;;;;;;;3.60;2.35;;;;;;;;;;5053032;28;20052;-61
2024/02/29 09:28:25;;;;;;;3.85;2.50;;;;;;;;;;5052758;28;20045;-61
2024/02/29 09:30:54;;;;;;;2.60;2.20;;;;;;;;;;5053065;28;20492;-59
2024/02/29 09:33:20;;;;;;;3.47;2.30;;;;;;;;;;5052601;28;20060;-62
2024/02/29 09:35:54;;;;;;;2.80;1.80;;;;;;;;;;5052945;28;20431;-61
2024/02/29 09:38:21;;;;;;;3.35;2.38;;;;;;;;;;5053083;28;20400;-60
2024/02/29 09:40:48;;;;;;;3.35;2.33;;;;;;;;;;5052512;28;20163;-60
2024/02/29 09:43:15;;;;;;;3.15;2.38;;;;;;;;;;5052604;28;20060;-62
2024/02/29 09:45:42;;;;;;;3.20;2.30;;;;;;;;;;5051991;28;20448;-60
2024/02/29 09:48:11;;;;;;;2.63;1.95;;;;;;;;;;5052185;28;20059;-61
2024/02/29 09:50:38;;;;;;;2.90;2.20;;;;;;;;;;5052887;28;20489;-60
2024/02/29 09:53:05;;;;;;;4.00;2.50;;;;;;;;;;5052694;28;20389;-62
2024/02/29 09:55:33;;;;;;;2.72;2.03;;;;;;;;;;5052455;28;20510;-61
2024/02/29 09:58:01;;;;;;;4.07;2.10;;;;;;;;;;5052720;28;20048;-60
2024/02/29 10:00:28;;;;;;;3.30;2.20;;;;;;;;;;5052341;28;20412;-60
2024/02/29 10:02:56;;;;;;;2.42;1.80;;;;;;;;;;5052296;28;21005;-59
2024/02/29 10:05:24;;;;;;;2.65;1.98;;;;;;;;;;5052540;28;20461;-61
2024/02/29 10:07:51;;;;;;;2.80;1.80;;;;;;;;;;5052692;28;20060;-60
2024/02/29 10:10:18;;;;;;;4.07;2.00;;;;;;;;;;5052213;28;20065;-60
2024/02/29 10:12:53;;;;;;;3.20;2.30;;;;;;;;;;5051930;28;20052;-60
2024/02/29 10:15:20;;;;;;;4.00;1.88;;;;;;;;;;5052731;28;20456;-62
2024/02/29 10:17:47;;;;;;;3.60;2.20;;;;;;;;;;5052538;28;20057;-63
2024/02/29 10:20:15;;;;;;;3.05;2.15;;;;;;;;;;5052437;28;20053;-59
2024/02/29 10:22:44;;;;;;;3.20;1.95;;;;;;;;;;5052269;28;20053;-59
2024/02/29 10:25:11;;;;;;;2.40;1.83;;;;;;;;;;5052376;28;20051;-59
2024/02/29 10:27:38;;;;;;;2.83;1.88;;;;;;;;;;5052180;28;20068;-59
2024/02/29 10:30:09;;;;;;;3.63;2.03;;;;;;;;;;5052350;28;20056;-60
2024/02/29 10:32:36;;;;;;;3.67;1.90;;;;;;;;;;5052335;28;20071;-60
2024/02/29 10:35:16;;;;;;;4.38;2.38;;;;;;;;;;5052310;28;20472;-60
2024/02/29 10:37:44;;;;;;;3.22;2.08;;;;;;;;;;5051876;28;20071;-59
2024/02/29 10:40:11;;;;;;;2.92;1.83;;;;;;;;;;5052152;28;20053;-59
2024/02/29 10:42:39;;;;;;;2.67;2.10;;;;;;;;;;5052150;28;20393;-59
2024/02/29 10:45:08;;;;;;;2.28;1.70;;;;;;;;;;5052174;28;20045;-60
2024/02/29 10:47:37;;;;;;;2.53;2.03;;;;;;;;;;5051559;28;20053;-60
2024/02/29 10:50:07;;;;;;;2.88;2.10;;;;;;;;;;5051668;28;20055;-60
2024/02/29 10:52:33;;;;;;;;;;;;;;;;;;5052504;28;20068;-60
2024/02/29 10:55:05;;;;;;;2.78;1.85;;;;;;;;;;5052067;28;19928;-60
2024/02/29 10:57:38;;;;;;;2.22;1.58;;;;;;;;;;5051331;28;20057;-60
2024/02/29 11:00:06;;;;;;;3.38;1.85;;;;;;;;;;5052304;28;20049;-60
2024/02/29 11:02:33;;;;;;;2.90;1.88;;;;;;;;;;5051899;28;20419;-59
2024/02/29 11:05:00;;;;;;;4.22;2.00;;;;;;;;;;5052036;28;20053;-59
2024/02/29 11:07:27;;;;;;;2.58;2.05;;;;;;;;;;5052179;28;20053;-59
2024/02/29 11:09:54;;;;;;;2.70;1.60;;;;;;;;;;5052027;28;20399;-60
2024/02/29 11:12:27;;;;;;;3.30;1.80;;;;;;;;;;5051723;28;20057;-60
2024/02/29 11:14:57;;;;;;;2.53;1.70;;;;;;;;;;5053526;28;20060;-59
2024/02/29 11:17:27;;;;;;;3.72;1.98;;;;;;;;;;5055399;28;20057;-61
2024/02/29 11:19:57;;;;;;;2.53;1.90;;;;;;;;;;5055029;28;20053;-59
2024/02/29 11:22:31;;;;;;;2.88;1.80;;;;;;;;;;5054852;28;20064;-60
2024/02/29 11:24:59;;;;;;;3.55;2.20;;;;;;;;;;5055434;28;20415;-60
2024/02/29 11:27:31;;;;;;;3.78;2.30;;;;;;;;;;5055238;28;20064;-60
2024/02/29 11:30:01;;;;;;;2.60;1.75;;;;;;;;;;5055568;28;20056;-59
2024/02/29 11:32:31;;;;;;;2.72;2.20;;;;;;;;;;5055178;28;20053;-60
2024/02/29 11:34:59;;;;;;;2.90;2.00;;;;;;;;;;5055105;28;20076;-60
2024/02/29 11:37:26;;;;;;;2.92;2.15;;;;;;;;;;5055259;28;20052;-60
2024/02/29 11:40:00;;;;;;;2.42;1.67;;;;;;;;;;5055041;28;20060;-60
2024/02/29 11:42:27;;;;;;;4.80;2.65;;;;;;;;;;5054970;28;20056;-60
2024/02/29 11:44:56;;;;;;;3.92;2.20;;;;;;;;;;5054477;28;20049;-60
2024/02/29 11:47:22;;;;;;;3.13;1.95;;;;;;;;;;5054338;28;20060;-60
2024/02/29 11:49:49;;;;;;;3.00;2.10;;;;;;;;;;5054765;28;20399;-60
2024/02/29 11:52:16;;;;;;;3.15;2.20;;;;;;;;;;5054600;28;20057;-60
2024/02/29 11:54:43;;;;;;;3.22;2.08;;;;;;;;;;5054997;28;20373;-60
2024/02/29 11:57:11;;;;;;;4.60;2.60;;;;;;;;;;5054201;28;20060;-60
2024/02/29 11:59:38;;;;;;;3.08;2.00;;;;;;;;;;5054852;28;20079;-59
2024/02/29 12:02:06;;;;;;;3.35;2.28;;;;;;;;;;5054375;28;20068;-60
2024/02/29 12:04:33;;;;;;;3.22;2.08;;;;;;;;;;5054737;28;20488;-60
2024/02/29 12:07:00;;;;;;;3.85;1.80;;;;;;;;;;5054001;28;20049;-60
2024/02/29 12:09:27;;;;;;;2.92;1.80;;;;;;;;;;5054595;28;20064;-60
2024/02/29 12:11:53;;;;;;;3.72;2.00;;;;;;;;;;5053972;28;20536;-60
2024/02/29 12:14:22;;;;;;;4.05;1.80;;;;;;;;;;5054299;28;20404;-60
2024/02/29 12:16:49;;;;;;;4.28;1.85;;;;;;;;;;5054489;28;20060;-60
2024/02/29 12:19:17;;;;;;;3.55;1.60;;;;;;;;;;5054273;28;20060;-60
2024/02/29 12:21:44;;;;;;;2.13;1.58;;;;;;;;;;5054057;28;20052;-60
2024/02/29 12:24:11;;;;;;;2.72;1.90;;;;;;;;;;5054035;28;20068;-60
2024/02/29 12:26:40;;;;;;;3.47;1.80;;;;;;;;;;5052812;28;20436;-60
2024/02/29 12:29:07;;;;;;;2.78;1.67;;;;;;;;;;5053978;28;20049;-60
2024/02/29 12:31:34;;;;;;;2.88;1.52;;;;;;;;;;5053662;28;20420;-60
2024/02/29 12:34:01;;;;;;;2.75;1.60;;;;;;;;;;5053955;28;20068;-60
2024/02/29 12:36:29;;;;;;;3.38;1.83;;;;;;;;;;5053550;28;20049;-61
2024/02/29 12:38:56;;;;;;;3.45;1.80;;;;;;;;;;5053763;28;20048;-60
2024/02/29 12:41:24;;;;;;;2.72;1.80;;;;;;;;;;5053519;28;20506;-60
2024/02/29 12:43:54;;;;;;;3.17;1.92;;;;;;;;;;5053722;28;20060;-60
2024/02/29 12:46:20;;;;;;;2.88;1.90;;;;;;;;;;5053047;28;20522;-60
2024/02/29 12:48:47;;;;;;;3.55;1.80;;;;;;;;;;5053307;28;20049;-60
2024/02/29 12:51:14;;;;;;;3.17;1.80;;;;;;;;;;5053196;28;20055;-60
2024/02/29 12:53:42;;;;;;;4.40;1.38;;;;;;;;;;5053340;28;20056;-60
2024/02/29 12:56:09;;;;;;;2.67;1.50;;;;;;;;;;5053500;28;20051;-60
2024/02/29 12:58:36;;;;;;;2.30;1.70;;;;;;;;;;5053377;28;20060;-60
2024/02/29 13:01:05;;;;;;;2.70;1.42;;;;;;;;;;5053744;28;20531;-60
2024/02/29 13:03:32;;;;;;;3.80;1.67;;;;;;;;;;5053456;28;20053;-60
2024/02/29 13:05:58;;;;;;;3.38;1.70;;;;;;;;;;5052834;28;20049;-60
2024/02/29 13:08:25;;;;;;;2.10;1.35;;;;;;;;;;5053008;28;20056;-60
2024/02/29 13:10:53;;;;;;;4.68;1.70;;;;;;;;;;5053022;28;20506;-60
2024/02/29 13:13:20;;;;;;;3.42;1.75;;;;;;;;;;5053066;28;20067;-60
2024/02/29 13:15:47;;;;;;;3.58;1.55;;;;;;;;;;5053016;28;20063;-60
2024/02/29 13:18:14;;;;;;;2.92;1.60;;;;;;;;;;5052904;28;20060;-60
2024/02/29 13:20:41;;;;;;;3.50;1.55;;;;;;;;;;5052750;28;20518;-60
2024/02/29 13:23:07;;;;;;;3.38;1.83;;;;;;;;;;5052996;28;20060;-61
2024/02/29 13:25:34;;;;;;;2.88;1.52;;;;;;;;;;5053118;28;20086;-61
2024/02/29 13:28:04;;;;;;;2.20;1.50;;;;;;;;;;5052405;28;20048;-60
2024/02/29 13:30:30;;;;;;;3.53;1.83;;;;;;;;;;5052760;28;20064;-61
2024/02/29 13:32:57;;;;;;;2.70;1.83;;;;;;;;;;5052996;28;20070;-61
2024/02/29 13:35:24;;;;;;;2.90;1.80;;;;;;;;;;5052997;28;20057;-60
2024/02/29 13:37:51;;;;;;;3.45;1.95;;;;;;;;;;5052219;28;20056;-61
2024/02/29 13:40:18;;;;;;;2.55;1.73;;;;;;;;;;5052563;28;20056;-61
2024/02/29 13:42:45;;;;;;;3.65;1.90;;;;;;;;;;5052666;28;20049;-61
2024/02/29 13:45:13;;;;;;;2.47;1.67;;;;;;;;;;5052787;28;20053;-61
2024/02/29 13:47:46;;;;;;;3.75;1.92;;;;;;;;;;5052279;28;20053;-61
2024/02/29 13:50:13;;;;;;;2.60;1.60;;;;;;;;;;5052940;28;20396;-61
2024/02/29 13:52:41;;;;;;;3.05;1.90;;;;;;;;;;5052531;28;20064;-61
2024/02/29 13:55:08;;;;;;;3.20;1.85;;;;;;;;;;5052816;28;20060;-61
2024/02/29 13:57:36;;;;;;;2.92;1.80;;;;;;;;;;5052670;28;20499;-61
2024/02/29 14:00:05;;;;;;;3.33;1.73;;;;;;;;;;5052679;28;20064;-61
2024/02/29 14:02:34;;;;;;;3.25;1.73;;;;;;;;;;5052703;28;20049;-61
2024/02/29 14:05:01;;;;;;;4.20;1.90;;;;;;;;;;5052680;28;20060;-61
2024/02/29 14:07:28;;;;;;;2.40;1.38;;;;;;;;;;5052446;28;20357;-61
2024/02/29 14:09:54;;;;;;;2.88;1.58;;;;;;;;;;5052597;28;20063;-61
2024/02/29 14:12:24;;;;;;;2.05;1.40;;;;;;;;;;5052298;28;20061;-61
2024/02/29 14:14:51;;;;;;;2.63;1.48;;;;;;;;;;5052573;28;20052;-61
2024/02/29 14:17:18;;;;;;;2.45;1.63;;;;;;;;;;5052335;28;20045;-60
2024/02/29 14:19:46;;;;;;;2.78;1.50;;;;;;;;;;5051833;28;20075;-59
2024/02/29 14:22:13;;;;;;;2.97;1.40;;;;;;;;;;5052340;28;20053;-60
2024/02/29 14:24:40;;;;;;;2.83;1.45;;;;;;;;;;5052206;28;20056;-60
2024/02/29 14:27:07;;;;;;;2.50;1.63;;;;;;;;;;5052339;28;20081;-60
2024/02/29 14:29:34;;;;;;;3.38;1.75;;;;;;;;;;5052519;28;20053;-60
2024/02/29 14:32:01;;;;;;;2.58;1.40;;;;;;;;;;5052210;28;20056;-60
2024/02/29 14:34:28;;;;;;;2.65;1.42;;;;;;;;;;5052356;28;20056;-60
2024/02/29 14:36:56;;;;;;;2.10;1.38;;;;;;;;;;5051638;28;20048;-58